Terminal Aerodrome Forecast
Issued by NWS Greer, SC

Home | Current Version | Previous Version | Text Only | Print | Product List | Glossary On
Versions: 1 2 3 4 5 6 7 8 9 10 11 12 13 14 15 16 17 18 19
000
FTUS42 KGSP 211200 CCA
TAFGSP
TAF COR
KGSP 211207Z 2112/2212 36003KT P6SM SKC
     FM211800 30006KT P6SM FEW050 FEW250
     FM220000 36009KT P6SM FEW150=

USA.gov is the U.S. government's official web portal to all federal, state and local government web resources and services.